sensor_id;sensor_type;location;lat;lon;timestamp;pressure;altitude;pressure_sealevel;temperature;humidity
48882;BME280;57063;51.406;-2.402;2023-01-30T00:00:57;101227.97;;;7.39;100.00
48882;BME280;57063;51.406;-2.402;2023-01-30T00:03:23;101226.00;;;7.20;100.00
48882;BME280;57063;51.406;-2.402;2023-01-30T00:05:49;101248.69;;;7.34;100.00
48882;BME280;57063;51.406;-2.402;2023-01-30T00:08:16;101231.13;;;7.20;100.00
48882;BME280;57063;51.406;-2.402;2023-01-30T00:10:42;101235.88;;;7.33;100.00
48882;BME280;57063;51.406;-2.402;2023-01-30T00:13:07;101221.13;;;7.39;100.00
48882;BME280;57063;51.406;-2.402;2023-01-30T00:15:33;101223.84;;;7.35;100.00
48882;BME280;57063;51.406;-2.402;2023-01-30T00:17:58;101238.44;;;7.33;100.00
48882;BME280;57063;51.406;-2.402;2023-01-30T00:20:24;101220.66;;;7.26;100.00
48882;BME280;57063;51.406;-2.402;2023-01-30T00:22:49;101228.03;;;7.37;100.00
48882;BME280;57063;51.406;-2.402;2023-01-30T00:25:15;101210.31;;;7.29;100.00
48882;BME280;57063;51.406;-2.402;2023-01-30T00:27:40;101212.41;;;7.43;100.00
48882;BME280;57063;51.406;-2.402;2023-01-30T00:30:06;101222.53;;;7.48;100.00
48882;BME280;57063;51.406;-2.402;2023-01-30T00:32:32;101203.69;;;7.49;100.00
48882;BME280;57063;51.406;-2.402;2023-01-30T00:34:58;101203.00;;;7.44;100.00
48882;BME280;57063;51.406;-2.402;2023-01-30T00:37:24;101203.97;;;7.40;100.00
48882;BME280;57063;51.406;-2.402;2023-01-30T00:39:49;101196.47;;;7.34;100.00
48882;BME280;57063;51.406;-2.402;2023-01-30T00:42:15;101192.91;;;7.38;100.00
48882;BME280;57063;51.406;-2.402;2023-01-30T00:44:58;101197.00;;;7.43;100.00
48882;BME280;57063;51.406;-2.402;2023-01-30T00:47:43;101184.47;;;7.34;100.00
48882;BME280;57063;51.406;-2.402;2023-01-30T00:50:08;101177.63;;;7.35;100.00
48882;BME280;57063;51.406;-2.402;2023-01-30T00:52:34;101181.81;;;7.37;100.00
48882;BME280;57063;51.406;-2.402;2023-01-30T00:55:00;101168.31;;;7.31;100.00
48882;BME280;57063;51.406;-2.402;2023-01-30T00:57:25;101190.25;;;7.41;100.00
48882;BME280;57063;51.406;-2.402;2023-01-30T00:59:51;101170.59;;;7.40;100.00
48882;BME280;57063;51.406;-2.402;2023-01-30T01:02:16;101168.56;;;7.49;100.00
48882;BME280;57063;51.406;-2.402;2023-01-30T01:04:42;101175.34;;;7.52;100.00
48882;BME280;57063;51.406;-2.402;2023-01-30T01:07:09;101180.19;;;7.61;100.00
48882;BME280;57063;51.406;-2.402;2023-01-30T01:09:34;101164.25;;;7.50;100.00
48882;BME280;57063;51.406;-2.402;2023-01-30T01:12:00;101167.41;;;7.58;100.00
48882;BME280;57063;51.406;-2.402;2023-01-30T01:14:25;101164.94;;;7.55;100.00
48882;BME280;57063;51.406;-2.402;2023-01-30T01:16:51;101150.47;;;7.53;100.00
48882;BME280;57063;51.406;-2.402;2023-01-30T01:19:16;101171.44;;;7.65;100.00
48882;BME280;57063;51.406;-2.402;2023-01-30T01:21:42;101162.75;;;7.69;100.00
48882;BME280;57063;51.406;-2.402;2023-01-30T01:24:11;101145.88;;;7.62;100.00
48882;BME280;57063;51.406;-2.402;2023-01-30T01:26:36;101147.47;;;7.66;100.00
48882;BME280;57063;51.406;-2.402;2023-01-30T01:29:02;101149.13;;;7.67;100.00
48882;BME280;57063;51.406;-2.402;2023-01-30T01:31:27;101156.09;;;7.64;100.00
48882;BME280;57063;51.406;-2.402;2023-01-30T01:33:53;101132.34;;;7.57;100.00
48882;BME280;57063;51.406;-2.402;2023-01-30T01:36:19;101145.88;;;7.62;100.00
48882;BME280;57063;51.406;-2.402;2023-01-30T01:38:44;101131.56;;;7.55;100.00
48882;BME280;57063;51.406;-2.402;2023-01-30T01:41:11;101147.56;;;7.63;100.00
48882;BME280;57063;51.406;-2.402;2023-01-30T01:46:33;101138.31;;;7.58;100.00
48882;BME280;57063;51.406;-2.402;2023-01-30T01:49:05;101160.56;;;7.84;100.00
48882;BME280;57063;51.406;-2.402;2023-01-30T01:51:37;101139.47;;;7.74;100.00
48882;BME280;57063;51.406;-2.402;2023-01-30T01:54:12;101144.66;;;7.72;100.00
48882;BME280;57063;51.406;-2.402;2023-01-30T01:56:41;101118.94;;;7.49;100.00
48882;BME280;57063;51.406;-2.402;2023-01-30T01:59:31;101135.66;;;7.61;100.00
48882;BME280;57063;51.406;-2.402;2023-01-30T02:02:00;101125.63;;;7.53;100.00
48882;BME280;57063;51.406;-2.402;2023-01-30T02:04:28;101134.09;;;7.57;100.00
48882;BME280;57063;51.406;-2.402;2023-01-30T02:07:14;101132.22;;;7.60;100.00
48882;BME280;57063;51.406;-2.402;2023-01-30T02:09:42;101119.66;;;7.53;100.00
48882;BME280;57063;51.406;-2.402;2023-01-30T02:12:08;101136.91;;;7.49;100.00
48882;BME280;57063;51.406;-2.402;2023-01-30T02:14:36;101141.56;;;7.63;100.00
48882;BME280;57063;51.406;-2.402;2023-01-30T02:17:02;101129.09;;;7.52;100.00
48882;BME280;57063;51.406;-2.402;2023-01-30T02:19:47;101143.88;;;7.70;100.00
48882;BME280;57063;51.406;-2.402;2023-01-30T02:31:23;101161.78;;;7.74;100.00
48882;BME280;57063;51.406;-2.402;2023-01-30T02:37:02;101125.63;;;7.53;100.00
48882;BME280;57063;51.406;-2.402;2023-01-30T02:42:31;101126.63;;;7.49;100.00
48882;BME280;57063;51.406;-2.402;2023-01-30T02:47:56;101117.66;;;7.36;100.00
48882;BME280;57063;51.406;-2.402;2023-01-30T02:50:28;101131.78;;;7.22;100.00
48882;BME280;57063;51.406;-2.402;2023-01-30T02:52:56;101120.31;;;7.06;100.00
48882;BME280;57063;51.406;-2.402;2023-01-30T02:55:25;101111.69;;;7.08;100.00
48882;BME280;57063;51.406;-2.402;2023-01-30T02:57:52;101133.75;;;7.14;100.00
48882;BME280;57063;51.406;-2.402;2023-01-30T03:03:18;101124.34;;;7.15;100.00
48882;BME280;57063;51.406;-2.402;2023-01-30T03:11:59;101159.25;;;7.20;100.00
48882;BME280;57063;51.406;-2.402;2023-01-30T03:14:31;101149.16;;;7.14;100.00
48882;BME280;57063;51.406;-2.402;2023-01-30T03:16:59;101154.66;;;7.02;100.00
48882;BME280;57063;51.406;-2.402;2023-01-30T03:19:27;101145.06;;;7.08;100.00
48882;BME280;57063;51.406;-2.402;2023-01-30T03:21:53;101135.56;;;7.12;100.00
48882;BME280;57063;51.406;-2.402;2023-01-30T03:24:19;101158.59;;;7.14;100.00
48882;BME280;57063;51.406;-2.402;2023-01-30T03:26:48;101148.38;;;7.12;100.00
48882;BME280;57063;51.406;-2.402;2023-01-30T03:29:16;101146.28;;;6.97;100.00
48882;BME280;57063;51.406;-2.402;2023-01-30T03:31:42;101139.19;;;7.05;100.00
48882;BME280;57063;51.406;-2.402;2023-01-30T03:34:07;101139.28;;;7.02;100.00
48882;BME280;57063;51.406;-2.402;2023-01-30T03:36:33;101154.00;;;7.23;100.00
48882;BME280;57063;51.406;-2.402;2023-01-30T03:38:58;101144.13;;;7.11;100.00
48882;BME280;57063;51.406;-2.402;2023-01-30T03:41:24;101143.47;;;7.04;100.00
48882;BME280;57063;51.406;-2.402;2023-01-30T03:43:50;101157.84;;;7.10;100.00
48882;BME280;57063;51.406;-2.402;2023-01-30T03:46:15;101138.41;;;7.03;100.00
48882;BME280;57063;51.406;-2.402;2023-01-30T03:48:41;101145.28;;;7.02;100.00
48882;BME280;57063;51.406;-2.402;2023-01-30T03:51:06;101172.56;;;7.05;100.00
48882;BME280;57063;51.406;-2.402;2023-01-30T03:53:32;101169.69;;;7.14;100.00
48882;BME280;57063;51.406;-2.402;2023-01-30T03:55:57;101159.91;;;6.99;100.00
48882;BME280;57063;51.406;-2.402;2023-01-30T03:58:23;101166.44;;;7.09;100.00
48882;BME280;57063;51.406;-2.402;2023-01-30T04:00:48;101194.53;;;7.14;100.00
48882;BME280;57063;51.406;-2.402;2023-01-30T04:03:14;101188.59;;;7.12;100.00
48882;BME280;57063;51.406;-2.402;2023-01-30T04:05:42;101191.22;;;7.10;100.00
48882;BME280;57063;51.406;-2.402;2023-01-30T04:08:08;101196.41;;;7.08;100.00
48882;BME280;57063;51.406;-2.402;2023-01-30T04:10:33;101209.47;;;7.01;100.00
48882;BME280;57063;51.406;-2.402;2023-01-30T04:12:59;101194.53;;;6.85;100.00
48882;BME280;57063;51.406;-2.402;2023-01-30T04:15:24;101202.78;;;6.65;100.00
48882;BME280;57063;51.406;-2.402;2023-01-30T04:17:50;101220.81;;;6.64;100.00
48882;BME280;57063;51.406;-2.402;2023-01-30T04:20:15;101230.16;;;6.67;100.00
48882;BME280;57063;51.406;-2.402;2023-01-30T04:22:41;101211.31;;;6.36;100.00
48882;BME280;57063;51.406;-2.402;2023-01-30T04:25:07;101223.16;;;6.09;100.00
48882;BME280;57063;51.406;-2.402;2023-01-30T04:27:32;101225.78;;;6.08;100.00
48882;BME280;57063;51.406;-2.402;2023-01-30T04:29:58;101228.38;;;6.05;100.00
48882;BME280;57063;51.406;-2.402;2023-01-30T04:32:25;101230.94;;;6.05;100.00
48882;BME280;57063;51.406;-2.402;2023-01-30T04:34:50;101270.56;;;6.27;100.00
48882;BME280;57063;51.406;-2.402;2023-01-30T04:37:16;101243.28;;;6.25;100.00
48882;BME280;57063;51.406;-2.402;2023-01-30T04:39:41;101273.53;;;6.43;100.00
48882;BME280;57063;51.406;-2.402;2023-01-30T04:42:07;101248.06;;;6.37;100.00
48882;BME280;57063;51.406;-2.402;2023-01-30T04:44:32;101255.03;;;6.63;100.00
48882;BME280;57063;51.406;-2.402;2023-01-30T04:46:58;101271.41;;;6.59;100.00
48882;BME280;57063;51.406;-2.402;2023-01-30T04:49:24;101293.72;;;6.55;100.00
48882;BME280;57063;51.406;-2.402;2023-01-30T04:51:49;101301.78;;;6.41;100.00
48882;BME280;57063;51.406;-2.402;2023-01-30T04:54:15;101278.47;;;6.18;100.00
48882;BME280;57063;51.406;-2.402;2023-01-30T04:56:40;101297.31;;;6.17;100.00
48882;BME280;57063;51.406;-2.402;2023-01-30T04:59:06;101284.09;;;5.98;100.00
48882;BME280;57063;51.406;-2.402;2023-01-30T05:01:34;101269.53;;;5.63;100.00
48882;BME280;57063;51.406;-2.402;2023-01-30T05:04:00;101307.53;;;5.81;100.00
48882;BME280;57063;51.406;-2.402;2023-01-30T05:06:26;101281.41;;;5.67;99.71
48882;BME280;57063;51.406;-2.402;2023-01-30T05:08:53;101271.56;;;5.48;100.00
48882;BME280;57063;51.406;-2.402;2023-01-30T05:11:19;101278.59;;;5.40;98.30
48882;BME280;57063;51.406;-2.402;2023-01-30T05:13:45;101271.16;;;5.29;98.57
48882;BME280;57063;51.406;-2.402;2023-01-30T05:16:12;101315.63;;;5.24;99.99
48882;BME280;57063;51.406;-2.402;2023-01-30T05:18:38;101283.97;;;4.87;99.50
48882;BME280;57063;51.406;-2.402;2023-01-30T05:21:18;101299.97;;;4.97;98.25
48882;BME280;57063;51.406;-2.402;2023-01-30T05:23:44;101303.50;;;4.91;97.49
48882;BME280;57063;51.406;-2.402;2023-01-30T05:26:11;101307.06;;;4.83;98.67
48882;BME280;57063;51.406;-2.402;2023-01-30T05:28:37;101324.44;;;4.68;99.73
48882;BME280;57063;51.406;-2.402;2023-01-30T05:31:10;101305.72;;;4.66;98.42
48882;BME280;57063;51.406;-2.402;2023-01-30T05:33:36;101323.84;;;4.53;100.00
48882;BME280;57063;51.406;-2.402;2023-01-30T05:36:02;101316.63;;;4.26;100.00
48882;BME280;57063;51.406;-2.402;2023-01-30T05:38:28;101337.97;;;4.25;100.00
48882;BME280;57063;51.406;-2.402;2023-01-30T05:41:01;101357.44;;;4.33;100.00
48882;BME280;57063;51.406;-2.402;2023-01-30T05:43:27;101345.78;;;4.16;100.00
48882;BME280;57063;51.406;-2.402;2023-01-30T05:45:53;101343.97;;;4.21;100.00
48882;BME280;57063;51.406;-2.402;2023-01-30T05:48:20;101342.25;;;4.25;100.00
48882;BME280;57063;51.406;-2.402;2023-01-30T05:50:46;101331.25;;;4.20;99.27
48882;BME280;57063;51.406;-2.402;2023-01-30T05:53:11;101349.09;;;4.23;99.66
48882;BME280;57063;51.406;-2.402;2023-01-30T05:55:38;101333.63;;;4.31;96.12
48882;BME280;57063;51.406;-2.402;2023-01-30T05:58:03;101341.16;;;4.38;95.11
48882;BME280;57063;51.406;-2.402;2023-01-30T06:00:29;101362.50;;;4.36;94.91
48882;BME280;57063;51.406;-2.402;2023-01-30T06:02:54;101343.00;;;4.30;93.76
48882;BME280;57063;51.406;-2.402;2023-01-30T06:05:20;101355.00;;;4.25;94.46
48882;BME280;57063;51.406;-2.402;2023-01-30T06:07:45;101363.47;;;4.28;93.30
48882;BME280;57063;51.406;-2.402;2023-01-30T06:10:11;101375.34;;;4.31;92.54
48882;BME280;57063;51.406;-2.402;2023-01-30T06:12:36;101366.47;;;4.01;94.30
48882;BME280;57063;51.406;-2.402;2023-01-30T06:15:02;101387.50;;;4.17;94.01
48882;BME280;57063;51.406;-2.402;2023-01-30T06:17:28;101407.88;;;4.21;94.59
48882;BME280;57063;51.406;-2.402;2023-01-30T06:19:53;101393.56;;;4.10;94.47
48882;BME280;57063;51.406;-2.402;2023-01-30T06:22:19;101388.56;;;4.03;93.97
48882;BME280;57063;51.406;-2.402;2023-01-30T06:24:44;101393.34;;;4.23;94.91
48882;BME280;57063;51.406;-2.402;2023-01-30T06:27:10;101390.66;;;4.34;95.26
48882;BME280;57063;51.406;-2.402;2023-01-30T06:29:35;101384.72;;;4.31;93.00
48882;BME280;57063;51.406;-2.402;2023-01-30T06:32:01;101408.34;;;4.45;92.06
48882;BME280;57063;51.406;-2.402;2023-01-30T06:34:26;101418.31;;;4.62;93.07
48882;BME280;57063;51.406;-2.402;2023-01-30T06:36:52;101405.38;;;4.68;89.35
48882;BME280;57063;51.406;-2.402;2023-01-30T06:39:17;101397.81;;;4.63;89.32
48882;BME280;57063;51.406;-2.402;2023-01-30T06:41:43;101418.22;;;4.66;90.97
48882;BME280;57063;51.406;-2.402;2023-01-30T06:44:08;101433.34;;;4.79;91.20
48882;BME280;57063;51.406;-2.402;2023-01-30T06:46:34;101445.16;;;4.86;90.75
48882;BME280;57063;51.406;-2.402;2023-01-30T06:48:59;101441.84;;;4.81;89.83
48882;BME280;57063;51.406;-2.402;2023-01-30T06:51:25;101441.78;;;4.84;90.90
48882;BME280;57063;51.406;-2.402;2023-01-30T06:53:52;101422.47;;;4.67;90.48
48882;BME280;57063;51.406;-2.402;2023-01-30T06:56:17;101449.53;;;4.81;91.16
48882;BME280;57063;51.406;-2.402;2023-01-30T06:58:44;101424.25;;;4.62;90.37
48882;BME280;57063;51.406;-2.402;2023-01-30T07:01:10;101448.91;;;4.66;91.43
48882;BME280;57063;51.406;-2.402;2023-01-30T07:03:35;101425.34;;;4.49;91.27
48882;BME280;57063;51.406;-2.402;2023-01-30T07:06:01;101425.47;;;4.40;91.57
48882;BME280;57063;51.406;-2.402;2023-01-30T07:08:26;101428.75;;;4.48;91.50
48882;BME280;57063;51.406;-2.402;2023-01-30T07:10:52;101427.47;;;4.22;92.48
48882;BME280;57063;51.406;-2.402;2023-01-30T07:13:17;101446.69;;;4.46;91.79
48882;BME280;57063;51.406;-2.402;2023-01-30T07:15:43;101454.41;;;4.42;92.59
48882;BME280;57063;51.406;-2.402;2023-01-30T07:18:09;101469.66;;;4.48;93.02
48882;BME280;57063;51.406;-2.402;2023-01-30T07:20:35;101457.94;;;4.35;93.36
48882;BME280;57063;51.406;-2.402;2023-01-30T07:23:01;101455.53;;;4.24;93.52
48882;BME280;57063;51.406;-2.402;2023-01-30T07:25:27;101473.41;;;4.25;93.13
48882;BME280;57063;51.406;-2.402;2023-01-30T07:27:56;101502.16;;;4.40;94.38
48882;BME280;57063;51.406;-2.402;2023-01-30T07:30:21;101487.06;;;4.23;93.42
48882;BME280;57063;51.406;-2.402;2023-01-30T07:32:55;101492.19;;;4.21;94.05
48882;BME280;57063;51.406;-2.402;2023-01-30T07:35:22;101488.97;;;4.10;94.23
48882;BME280;57063;51.406;-2.402;2023-01-30T07:37:49;101520.56;;;4.03;95.72
48882;BME280;57063;51.406;-2.402;2023-01-30T07:40:16;101497.00;;;3.79;97.80
48882;BME280;57063;51.406;-2.402;2023-01-30T07:42:42;101494.69;;;3.58;98.68
48882;BME280;57063;51.406;-2.402;2023-01-30T07:45:08;101506.56;;;3.62;98.25
48882;BME280;57063;51.406;-2.402;2023-01-30T07:47:34;101493.03;;;3.57;99.02
48882;BME280;57063;51.406;-2.402;2023-01-30T07:49:59;101492.28;;;3.47;99.31
48882;BME280;57063;51.406;-2.402;2023-01-30T07:52:25;101490.63;;;3.43;99.27
48882;BME280;57063;51.406;-2.402;2023-01-30T07:54:50;101489.06;;;3.30;99.55
48882;BME280;57063;51.406;-2.402;2023-01-30T07:57:16;101517.91;;;3.39;99.68
48882;BME280;57063;51.406;-2.402;2023-01-30T07:59:41;101501.13;;;3.15;99.88
48882;BME280;57063;51.406;-2.402;2023-01-30T08:02:10;101529.09;;;3.23;100.00
48882;BME280;57063;51.406;-2.402;2023-01-30T08:04:36;101530.09;;;3.07;100.00
48882;BME280;57063;51.406;-2.402;2023-01-30T08:07:02;101505.59;;;2.87;100.00
48882;BME280;57063;51.406;-2.402;2023-01-30T08:09:28;101512.41;;;2.87;100.00
48882;BME280;57063;51.406;-2.402;2023-01-30T08:11:53;101521.75;;;2.89;100.00
48882;BME280;57063;51.406;-2.402;2023-01-30T08:14:19;101515.91;;;2.75;100.00
48882;BME280;57063;51.406;-2.402;2023-01-30T08:16:44;101512.44;;;2.82;100.00
48882;BME280;57063;51.406;-2.402;2023-01-30T08:19:09;101545.47;;;2.97;100.00
48882;BME280;57063;51.406;-2.402;2023-01-30T08:21:35;101541.97;;;3.12;100.00
48882;BME280;57063;51.406;-2.402;2023-01-30T08:24:00;101557.16;;;3.25;100.00
48882;BME280;57063;51.406;-2.402;2023-01-30T08:26:26;101526.59;;;3.20;100.00
48882;BME280;57063;51.406;-2.402;2023-01-30T08:28:51;101529.06;;;3.29;100.00
48882;BME280;57063;51.406;-2.402;2023-01-30T08:31:17;101542.50;;;3.47;99.50
48882;BME280;57063;51.406;-2.402;2023-01-30T08:33:43;101562.69;;;3.65;98.70
48882;BME280;57063;51.406;-2.402;2023-01-30T08:36:09;101555.88;;;3.67;98.36
48882;BME280;57063;51.406;-2.402;2023-01-30T08:38:34;101549.78;;;3.79;97.61
48882;BME280;57063;51.406;-2.402;2023-01-30T08:41:00;101547.94;;;3.90;97.27
48882;BME280;57063;51.406;-2.402;2023-01-30T08:43:28;101542.66;;;4.04;95.09
48882;BME280;57063;51.406;-2.402;2023-01-30T08:45:54;101568.66;;;4.37;93.58
48882;BME280;57063;51.406;-2.402;2023-01-30T08:48:20;101561.69;;;4.48;92.57
48882;BME280;57063;51.406;-2.402;2023-01-30T08:50:45;101568.16;;;4.70;91.54
48882;BME280;57063;51.406;-2.402;2023-01-30T08:53:11;101555.31;;;4.75;90.55
48882;BME280;57063;51.406;-2.402;2023-01-30T08:55:36;101563.03;;;4.74;87.96
48882;BME280;57063;51.406;-2.402;2023-01-30T08:58:02;101557.56;;;4.95;87.91
48882;BME280;57063;51.406;-2.402;2023-01-30T09:00:27;101579.31;;;5.21;87.27
48882;BME280;57063;51.406;-2.402;2023-01-30T09:02:57;101577.91;;;5.52;86.12
48882;BME280;57063;51.406;-2.402;2023-01-30T09:05:23;101553.13;;;5.54;85.62
48882;BME280;57063;51.406;-2.402;2023-01-30T09:07:49;101563.91;;;5.70;83.75
48882;BME280;57063;51.406;-2.402;2023-01-30T09:10:15;101573.41;;;6.10;83.66
48882;BME280;57063;51.406;-2.402;2023-01-30T09:12:41;101573.47;;;6.48;83.27
48882;BME280;57063;51.406;-2.402;2023-01-30T09:15:07;101573.63;;;6.77;80.24
48882;BME280;57063;51.406;-2.402;2023-01-30T09:17:32;101580.63;;;7.08;77.51
